Dracut, MA (01826)

5:51 AM EST on February 09, 2016 (GMT -0500)
East Dracut | | Change Station
CLOSE
Current Station
Personal Weather Station
Location: Dracut, MA
Elevation: 212 ft
Nearby Weather Stations

Elev 212 ft 42.70 °N, 71.28 °W | Updated 3 seconds ago

Overcast
Overcast
18.0 °F
Feels Like 10 °F
N
6.0
Wind Variable Wind from ENE
Gusts 12.0 mph

Today
High -- | Low -- °F
--% Chance of Precip.
Yesterday
High -- | Low -- °F
Precip. -- in
Pressure 29.77 in
Visibility 10.0 miles
Clouds Few 1000 ft
Mostly Cloudy 2000 ft
Overcast 6000 ft
Windchill 10 °F
Dew Point Not available.
Humidity Not available.
Rainfall 0.00 in
Snow Depth Not available.
6:50 AM 5:08 PM
New Moon, 1% visible
METAR KLWM 090954Z AUTO 02007KT 10SM FEW010 BKN020 OVC060 M07/M10 A2976 RMK AO2 SLP079 T10721100
Pressure 29.77 in
Visibility 10.0 miles
Clouds Few 1000 ft
Mostly Cloudy 2000 ft
Overcast 6000 ft
Windchill 10 °F
Dew Point Not available.
Humidity Not available.
Rainfall 0.00 in
Snow Depth Not available.
6:50 AM 5:08 PM
New Moon, 1% visible
METAR KLWM 090954Z AUTO 02007KT 10SM FEW010 BKN020 OVC060 M07/M10 A2976 RMK AO2 SLP079 T10721100

10-Day Weather Forecast

Almanac

Astronomy

Feb. 09, 2016 Rise Set
Actual Time
Civil Twilight
Nautical Twilight
Astronomical Twilight
Moon
Length of Visible Light
Length of Day
Tomorrow will be .
, % of the Moon is Illuminated

Today's Extremes

State Highs State Lows

Community

WunderPhotos

Upload Photos

1,891,565 photos uploaded!

WunderBlog® & News

Nearby

Air Quality

  Air Quality AQ Index Pollutant
Not available.

Snow Depth

Station Depth Elevation

Earthquake Activity

City Distance Mag. Time & Date
Minimum magnitude displayed is 2.5.

Coastal Water Temperatures

Place Temperature

Stations

Nearby Weather Stations

Station Location Temp. Windchill Dew Point Humidity Wind Precip. Elev Updated Type
                   

Watches & Warnings

Special Statement
Issued: 4:04 AM EST Feb. 9, 2016 – National Weather Service

... Untreated roads will remain slippery for the morning rush
hour...

Scattered light snow showers and flurries will gradually come to
an end by mid morning... but some locations may receive a fresh
coating to one half inch of new snow. Otherwise... the main
concern is that with temperatures well below freezing untreated
roads will remain snow covered and slippery for the morning rush
hour. Motorists are urged to drive with extra caution.


Frank


404 am EST Tue Feb 9 2016

... Untreated roads will remain slippery for the morning rush
hour...

Scattered light snow showers and flurries will gradually come to
an end by mid morning... but some locations may receive a fresh
coating to one half inch of new snow. Otherwise... the main
concern is that with temperatures well below freezing untreated
roads will remain snow covered and slippery for the morning rush
hour. Motorists are urged to drive with extra caution.


Frank